sensor_id;sensor_type;location;lat;lon;timestamp;pressure;altitude;pressure_sealevel;temperature;humidity
10587;BME280;5341;47.606;7.576;2022-07-29T00:00:21;98538.00;;;28.30;38.87
10587;BME280;5341;47.606;7.576;2022-07-29T00:02:48;98537.50;;;28.28;38.91
10587;BME280;5341;47.606;7.576;2022-07-29T00:05:16;98534.19;;;28.26;38.93
10587;BME280;5341;47.606;7.576;2022-07-29T00:07:44;98534.00;;;28.23;38.72
10587;BME280;5341;47.606;7.576;2022-07-29T00:10:12;98544.47;;;28.21;39.05
10587;BME280;5341;47.606;7.576;2022-07-29T00:12:40;98541.50;;;28.17;38.92
10587;BME280;5341;47.606;7.576;2022-07-29T00:15:10;98541.00;;;28.15;39.20
10587;BME280;5341;47.606;7.576;2022-07-29T00:17:37;98531.94;;;28.15;39.03
10587;BME280;5341;47.606;7.576;2022-07-29T00:20:06;98519.31;;;28.14;39.00
10587;BME280;5341;47.606;7.576;2022-07-29T00:22:37;98547.13;;;28.12;39.00
10587;BME280;5341;47.606;7.576;2022-07-29T00:25:05;98543.00;;;28.10;39.27
10587;BME280;5341;47.606;7.576;2022-07-29T00:27:33;98553.50;;;28.08;38.98
10587;BME280;5341;47.606;7.576;2022-07-29T00:30:01;98540.38;;;28.05;38.93
10587;BME280;5341;47.606;7.576;2022-07-29T00:32:31;98537.91;;;28.03;39.02
10587;BME280;5341;47.606;7.576;2022-07-29T00:34:59;98534.34;;;28.02;39.14
10587;BME280;5341;47.606;7.576;2022-07-29T00:37:44;98537.41;;;28.01;39.13
10587;BME280;5341;47.606;7.576;2022-07-29T00:40:12;98534.97;;;27.99;39.18
10587;BME280;5341;47.606;7.576;2022-07-29T00:42:43;98531.16;;;27.95;39.25
10587;BME280;5341;47.606;7.576;2022-07-29T00:45:12;98532.28;;;27.94;39.25
10587;BME280;5341;47.606;7.576;2022-07-29T00:47:42;98535.84;;;27.95;39.38
10587;BME280;5341;47.606;7.576;2022-07-29T00:50:12;98529.34;;;27.91;39.54
10587;BME280;5341;47.606;7.576;2022-07-29T00:52:41;98525.78;;;27.90;39.21
10587;BME280;5341;47.606;7.576;2022-07-29T00:55:11;98520.28;;;27.90;39.60
10587;BME280;5341;47.606;7.576;2022-07-29T00:57:40;98521.41;;;27.89;39.48
10587;BME280;5341;47.606;7.576;2022-07-29T01:00:10;98516.19;;;27.88;39.56
10587;BME280;5341;47.606;7.576;2022-07-29T01:02:38;98519.22;;;27.86;39.95
10587;BME280;5341;47.606;7.576;2022-07-29T01:05:08;98517.09;;;27.83;39.78
10587;BME280;5341;47.606;7.576;2022-07-29T01:07:36;98505.59;;;27.81;40.21
10587;BME280;5341;47.606;7.576;2022-07-29T01:10:05;98509.75;;;27.79;40.28
10587;BME280;5341;47.606;7.576;2022-07-29T01:12:35;98517.50;;;27.77;40.82
10587;BME280;5341;47.606;7.576;2022-07-29T01:15:06;98512.56;;;27.73;40.57
10587;BME280;5341;47.606;7.576;2022-07-29T01:17:39;98514.81;;;27.71;40.87
10587;BME280;5341;47.606;7.576;2022-07-29T01:20:15;98529.16;;;27.68;40.80
10587;BME280;5341;47.606;7.576;2022-07-29T01:23:10;98522.34;;;27.66;40.83
10587;BME280;5341;47.606;7.576;2022-07-29T01:25:53;98538.59;;;27.62;40.88
10587;BME280;5341;47.606;7.576;2022-07-29T01:31:31;98546.06;;;27.57;41.35
10587;BME280;5341;47.606;7.576;2022-07-29T01:34:03;98551.06;;;27.55;41.53
10587;BME280;5341;47.606;7.576;2022-07-29T01:36:35;98550.25;;;27.54;41.63
10587;BME280;5341;47.606;7.576;2022-07-29T01:39:07;98552.22;;;27.49;42.01
10587;BME280;5341;47.606;7.576;2022-07-29T01:41:38;98550.19;;;27.40;42.24
10587;BME280;5341;47.606;7.576;2022-07-29T01:44:13;98538.69;;;27.38;42.11
10587;BME280;5341;47.606;7.576;2022-07-29T01:46:49;98540.88;;;27.36;41.90
10587;BME280;5341;47.606;7.576;2022-07-29T01:49:21;98541.69;;;27.37;42.00
10587;BME280;5341;47.606;7.576;2022-07-29T01:51:54;98535.69;;;27.35;42.23
10587;BME280;5341;47.606;7.576;2022-07-29T01:54:28;98536.06;;;27.28;42.52
10587;BME280;5341;47.606;7.576;2022-07-29T01:56:58;98529.53;;;27.24;42.57
10587;BME280;5341;47.606;7.576;2022-07-29T01:59:29;98531.75;;;27.22;42.21
10587;BME280;5341;47.606;7.576;2022-07-29T02:01:58;98523.81;;;27.21;42.23
10587;BME280;5341;47.606;7.576;2022-07-29T02:04:27;98525.22;;;27.18;42.59
10587;BME280;5341;47.606;7.576;2022-07-29T02:07:00;98529.91;;;27.18;42.33
10587;BME280;5341;47.606;7.576;2022-07-29T02:09:30;98536.81;;;27.15;42.45
10587;BME280;5341;47.606;7.576;2022-07-29T02:11:59;98537.38;;;27.12;42.50
10587;BME280;5341;47.606;7.576;2022-07-29T02:14:33;98537.38;;;27.12;42.21
10587;BME280;5341;47.606;7.576;2022-07-29T02:17:01;98537.38;;;27.12;42.19
10587;BME280;5341;47.606;7.576;2022-07-29T02:19:31;98533.00;;;27.11;42.51
10587;BME280;5341;47.606;7.576;2022-07-29T02:22:00;98536.56;;;27.11;42.32
10587;BME280;5341;47.606;7.576;2022-07-29T02:24:40;98529.44;;;27.10;42.46
10587;BME280;5341;47.606;7.576;2022-07-29T02:27:09;98526.19;;;27.08;42.85
10587;BME280;5341;47.606;7.576;2022-07-29T02:29:39;98527.31;;;27.07;42.77
10587;BME280;5341;47.606;7.576;2022-07-29T02:32:10;98530.03;;;27.07;42.75
10587;BME280;5341;47.606;7.576;2022-07-29T02:34:40;98530.34;;;27.06;43.08
10587;BME280;5341;47.606;7.576;2022-07-29T02:37:09;98525.16;;;27.04;42.95
10587;BME280;5341;47.606;7.576;2022-07-29T02:39:39;98520.78;;;27.03;43.22
10587;BME280;5341;47.606;7.576;2022-07-29T02:42:11;98528.47;;;27.01;43.19
10587;BME280;5341;47.606;7.576;2022-07-29T02:44:41;98529.56;;;27.00;42.99
10587;BME280;5341;47.606;7.576;2022-07-29T02:47:14;98534.53;;;26.98;43.32
10587;BME280;5341;47.606;7.576;2022-07-29T02:49:49;98538.69;;;26.96;43.42
10587;BME280;5341;47.606;7.576;2022-07-29T02:52:23;98542.53;;;26.95;43.23
10587;BME280;5341;47.606;7.576;2022-07-29T02:54:54;98529.13;;;26.93;43.30
10587;BME280;5341;47.606;7.576;2022-07-29T02:57:29;98537.66;;;26.92;43.79
10587;BME280;5341;47.606;7.576;2022-07-29T03:00:02;98529.72;;;26.90;43.74
10587;BME280;5341;47.606;7.576;2022-07-29T03:02:34;98532.72;;;26.88;43.50
10587;BME280;5341;47.606;7.576;2022-07-29T03:05:03;98529.16;;;26.88;43.84
10587;BME280;5341;47.606;7.576;2022-07-29T03:07:33;98524.78;;;26.87;43.98
10587;BME280;5341;47.606;7.576;2022-07-29T03:10:03;98532.22;;;26.86;43.66
10587;BME280;5341;47.606;7.576;2022-07-29T03:12:32;98527.00;;;26.85;43.67
10587;BME280;5341;47.606;7.576;2022-07-29T03:15:02;98536.34;;;26.84;43.75
10587;BME280;5341;47.606;7.576;2022-07-29T03:17:30;98535.53;;;26.83;44.19
10587;BME280;5341;47.606;7.576;2022-07-29T03:19:59;98537.78;;;26.81;44.32
10587;BME280;5341;47.606;7.576;2022-07-29T03:22:27;98532.59;;;26.80;44.06
10587;BME280;5341;47.606;7.576;2022-07-29T03:24:55;98538.06;;;26.80;44.03
10587;BME280;5341;47.606;7.576;2022-07-29T03:27:22;98540.00;;;26.79;44.28
10587;BME280;5341;47.606;7.576;2022-07-29T03:29:50;98537.25;;;26.79;44.23
10587;BME280;5341;47.606;7.576;2022-07-29T03:32:19;98542.22;;;26.77;44.11
10587;BME280;5341;47.606;7.576;2022-07-29T03:34:47;98540.56;;;26.76;44.49
10587;BME280;5341;47.606;7.576;2022-07-29T03:37:14;98537.31;;;26.74;44.25
10587;BME280;5341;47.606;7.576;2022-07-29T03:39:43;98548.28;;;26.74;44.36
10587;BME280;5341;47.606;7.576;2022-07-29T03:42:13;98546.66;;;26.73;44.48
10587;BME280;5341;47.606;7.576;2022-07-29T03:44:45;98557.91;;;26.72;44.53
10587;BME280;5341;47.606;7.576;2022-07-29T03:47:13;98555.16;;;26.72;44.68
10587;BME280;5341;47.606;7.576;2022-07-29T03:49:46;98553.53;;;26.71;45.10
10587;BME280;5341;47.606;7.576;2022-07-29T03:52:16;98558.50;;;26.69;44.84
10587;BME280;5341;47.606;7.576;2022-07-29T03:54:44;98554.13;;;26.68;44.92
10587;BME280;5341;47.606;7.576;2022-07-29T03:57:12;98545.38;;;26.66;45.13
10587;BME280;5341;47.606;7.576;2022-07-29T03:59:41;98548.38;;;26.64;45.32
10587;BME280;5341;47.606;7.576;2022-07-29T04:02:11;98559.66;;;26.63;45.35
10587;BME280;5341;47.606;7.576;2022-07-29T04:04:39;98552.53;;;26.62;45.02
10587;BME280;5341;47.606;7.576;2022-07-29T04:07:11;98557.22;;;26.61;45.03
10587;BME280;5341;47.606;7.576;2022-07-29T04:09:39;98546.53;;;26.60;45.08
10587;BME280;5341;47.606;7.576;2022-07-29T04:12:08;98554.75;;;26.60;45.03
10587;BME280;5341;47.606;7.576;2022-07-29T04:14:36;98566.84;;;26.58;45.00
10587;BME280;5341;47.606;7.576;2022-07-29T04:17:04;98564.41;;;26.57;45.27
10587;BME280;5341;47.606;7.576;2022-07-29T04:19:33;98568.78;;;26.58;45.41
10587;BME280;5341;47.606;7.576;2022-07-29T04:22:01;98563.88;;;26.55;45.25
10587;BME280;5341;47.606;7.576;2022-07-29T04:24:30;98566.63;;;26.55;45.04
10587;BME280;5341;47.606;7.576;2022-07-29T04:26:58;98568.81;;;26.53;44.96
10587;BME280;5341;47.606;7.576;2022-07-29T04:29:26;98566.38;;;26.51;44.96
10587;BME280;5341;47.606;7.576;2022-07-29T04:31:53;98567.47;;;26.50;44.87
10587;BME280;5341;47.606;7.576;2022-07-29T04:34:21;98563.09;;;26.49;45.04
10587;BME280;5341;47.606;7.576;2022-07-29T04:36:49;98561.47;;;26.48;44.81
10587;BME280;5341;47.606;7.576;2022-07-29T04:39:16;98557.91;;;26.48;45.00
10587;BME280;5341;47.606;7.576;2022-07-29T04:41:46;98566.13;;;26.48;44.86
10587;BME280;5341;47.606;7.576;2022-07-29T04:44:13;98563.69;;;26.46;45.07
10587;BME280;5341;47.606;7.576;2022-07-29T04:46:41;98565.63;;;26.46;44.82
10587;BME280;5341;47.606;7.576;2022-07-29T04:49:08;98565.91;;;26.44;44.84
10587;BME280;5341;47.606;7.576;2022-07-29T04:51:36;98575.25;;;26.43;44.86
10587;BME280;5341;47.606;7.576;2022-07-29T04:54:04;98583.78;;;26.42;44.85
10587;BME280;5341;47.606;7.576;2022-07-29T04:56:31;98578.28;;;26.42;45.10
10587;BME280;5341;47.606;7.576;2022-07-29T04:59:01;98590.06;;;26.42;45.26
10587;BME280;5341;47.606;7.576;2022-07-29T05:01:28;98590.06;;;26.42;44.93
10587;BME280;5341;47.606;7.576;2022-07-29T05:03:56;98587.31;;;26.42;44.79
10587;BME280;5341;47.606;7.576;2022-07-29T05:06:24;98588.16;;;26.43;44.89
10587;BME280;5341;47.606;7.576;2022-07-29T05:08:52;98593.63;;;26.43;45.33
10587;BME280;5341;47.606;7.576;2022-07-29T05:11:20;98588.97;;;26.43;45.28
10587;BME280;5341;47.606;7.576;2022-07-29T05:13:48;98591.41;;;26.45;45.10
10587;BME280;5341;47.606;7.576;2022-07-29T05:16:17;98580.44;;;26.45;44.96
10587;BME280;5341;47.606;7.576;2022-07-29T05:18:44;98591.41;;;26.45;45.24
10587;BME280;5341;47.606;7.576;2022-07-29T05:21:12;98589.47;;;26.45;45.08
10587;BME280;5341;47.606;7.576;2022-07-29T05:23:40;98596.59;;;26.46;45.22
10587;BME280;5341;47.606;7.576;2022-07-29T05:26:07;98598.22;;;26.47;45.03
10587;BME280;5341;47.606;7.576;2022-07-29T05:28:35;98596.31;;;26.48;45.10
10587;BME280;5341;47.606;7.576;2022-07-29T05:31:03;98597.66;;;26.50;45.24
10587;BME280;5341;47.606;7.576;2022-07-29T05:33:32;98606.41;;;26.52;45.02
10587;BME280;5341;47.606;7.576;2022-07-29T05:36:00;98600.91;;;26.52;44.82
10587;BME280;5341;47.606;7.576;2022-07-29T05:38:28;98599.84;;;26.53;44.84
10587;BME280;5341;47.606;7.576;2022-07-29T05:40:57;98602.28;;;26.55;45.31
10587;BME280;5341;47.606;7.576;2022-07-29T05:43:25;98601.72;;;26.53;45.14
10587;BME280;5341;47.606;7.576;2022-07-29T05:45:54;98607.75;;;26.55;45.47
10587;BME280;5341;47.606;7.576;2022-07-29T05:48:22;98607.47;;;26.56;45.05
10587;BME280;5341;47.606;7.576;2022-07-29T05:50:51;98613.53;;;26.53;46.36
10587;BME280;5341;47.606;7.576;2022-07-29T05:53:19;98607.09;;;26.39;46.66
10587;BME280;5341;47.606;7.576;2022-07-29T05:55:46;98610.44;;;26.31;46.94
10587;BME280;5341;47.606;7.576;2022-07-29T05:58:14;98619.78;;;26.30;47.14
10587;BME280;5341;47.606;7.576;2022-07-29T06:00:42;98626.88;;;26.31;47.20
10587;BME280;5341;47.606;7.576;2022-07-29T06:03:09;98626.88;;;26.31;47.20
10587;BME280;5341;47.606;7.576;2022-07-29T06:05:37;98627.72;;;26.32;47.00
10587;BME280;5341;47.606;7.576;2022-07-29T06:08:07;98620.88;;;26.29;47.57
10587;BME280;5341;47.606;7.576;2022-07-29T06:10:34;98618.94;;;26.29;47.23
10587;BME280;5341;47.606;7.576;2022-07-29T06:13:02;98616.44;;;26.33;47.28
10587;BME280;5341;47.606;7.576;2022-07-29T06:15:30;98626.31;;;26.34;47.28
10587;BME280;5341;47.606;7.576;2022-07-29T06:17:58;98627.13;;;26.35;47.32
10587;BME280;5341;47.606;7.576;2022-07-29T06:20:25;98633.97;;;26.37;47.29
10587;BME280;5341;47.606;7.576;2022-07-29T06:22:55;98629.00;;;26.39;47.12
10587;BME280;5341;47.606;7.576;2022-07-29T06:25:24;98634.75;;;26.43;47.20
10587;BME280;5341;47.606;7.576;2022-07-29T06:27:52;98636.69;;;26.42;46.91
10587;BME280;5341;47.606;7.576;2022-07-29T06:30:20;98638.63;;;26.42;46.83
10587;BME280;5341;47.606;7.576;2022-07-29T06:32:48;98644.91;;;26.42;47.14
10587;BME280;5341;47.606;7.576;2022-07-29T06:35:16;98641.91;;;26.39;47.36
10587;BME280;5341;47.606;7.576;2022-07-29T06:37:44;98636.97;;;26.36;47.35
10587;BME280;5341;47.606;7.576;2022-07-29T06:40:12;98646.88;;;26.37;47.39
10587;BME280;5341;47.606;7.576;2022-07-29T06:42:58;98653.16;;;26.37;46.97
10587;BME280;5341;47.606;7.576;2022-07-29T06:45:25;98654.50;;;26.40;47.21
10587;BME280;5341;47.606;7.576;2022-07-29T06:47:53;98661.63;;;26.41;46.80
10587;BME280;5341;47.606;7.576;2022-07-29T06:50:21;98669.59;;;26.42;47.05
10587;BME280;5341;47.606;7.576;2022-07-29T06:52:48;98672.88;;;26.44;46.58
10587;BME280;5341;47.606;7.576;2022-07-29T06:55:16;98679.69;;;26.47;46.71
10587;BME280;5341;47.606;7.576;2022-07-29T06:57:45;98695.03;;;26.48;46.83
10587;BME280;5341;47.606;7.576;2022-07-29T07:00:15;98698.59;;;26.48;46.54
10587;BME280;5341;47.606;7.576;2022-07-29T07:02:42;98697.78;;;26.48;46.98
10587;BME280;5341;47.606;7.576;2022-07-29T07:05:10;98700.53;;;26.48;47.03
10587;BME280;5341;47.606;7.576;2022-07-29T07:07:38;98707.66;;;26.49;46.71
10587;BME280;5341;47.606;7.576;2022-07-29T07:10:06;98709.84;;;26.47;46.81
10587;BME280;5341;47.606;7.576;2022-07-29T07:12:34;98711.50;;;26.48;46.55
10587;BME280;5341;47.606;7.576;2022-07-29T07:15:01;98719.72;;;26.48;46.34
10587;BME280;5341;47.606;7.576;2022-07-29T07:17:30;98715.06;;;26.48;46.30
10587;BME280;5341;47.606;7.576;2022-07-29T07:19:58;98714.75;;;26.50;46.29
10587;BME280;5341;47.606;7.576;2022-07-29T07:22:25;98719.13;;;26.51;46.57
10587;BME280;5341;47.606;7.576;2022-07-29T07:24:53;98717.50;;;26.50;46.33
10587;BME280;5341;47.606;7.576;2022-07-29T07:27:20;98714.47;;;26.51;46.29
10587;BME280;5341;47.606;7.576;2022-07-29T07:29:48;98712.53;;;26.52;46.88
10587;BME280;5341;47.606;7.576;2022-07-29T07:32:16;98719.97;;;26.51;47.03
10587;BME280;5341;47.606;7.576;2022-07-29T07:34:44;98712.84;;;26.50;46.75
10587;BME280;5341;47.606;7.576;2022-07-29T07:37:12;98716.41;;;26.51;47.08
10587;BME280;5341;47.606;7.576;2022-07-29T07:39:40;98721.88;;;26.51;47.01
10587;BME280;5341;47.606;7.576;2022-07-29T07:42:07;98725.44;;;26.51;47.11
10587;BME280;5341;47.606;7.576;2022-07-29T07:44:37;98721.34;;;26.54;47.31
10587;BME280;5341;47.606;7.576;2022-07-29T07:47:04;98726.00;;;26.53;47.19
10587;BME280;5341;47.606;7.576;2022-07-29T07:49:32;98722.16;;;26.54;47.21
10587;BME280;5341;47.606;7.576;2022-07-29T07:52:01;98724.59;;;26.56;47.48
10587;BME280;5341;47.606;7.576;2022-07-29T07:54:29;98726.53;;;26.55;47.77
10587;BME280;5341;47.606;7.576;2022-07-29T07:56:57;98727.88;;;26.58;47.79
10587;BME280;5341;47.606;7.576;2022-07-29T07:59:26;98707.84;;;26.57;47.74
10587;BME280;5341;47.606;7.576;2022-07-29T08:01:54;98703.19;;;26.58;47.82
10587;BME280;5341;47.606;7.576;2022-07-29T08:04:22;98716.59;;;26.60;47.52
10587;BME280;5341;47.606;7.576;2022-07-29T08:06:50;98715.50;;;26.61;47.80
10587;BME280;5341;47.606;7.576;2022-07-29T08:09:21;98700.97;;;26.60;47.46
10587;BME280;5341;47.606;7.576;2022-07-29T08:11:49;98700.97;;;26.60;47.96
10587;BME280;5341;47.606;7.576;2022-07-29T08:14:18;98700.97;;;26.60;48.24
10587;BME280;5341;47.606;7.576;2022-07-29T08:16:47;98701.78;;;26.61;48.34
10587;BME280;5341;47.606;7.576;2022-07-29T08:19:15;98705.34;;;26.61;48.06
10587;BME280;5341;47.606;7.576;2022-07-29T08:21:43;98705.34;;;26.61;48.56
10587;BME280;5341;47.606;7.576;2022-07-29T08:24:11;98701.50;;;26.62;48.39
10587;BME280;5341;47.606;7.576;2022-07-29T08:26:58;98712.97;;;26.64;48.32
10587;BME280;5341;47.606;7.576;2022-07-29T08:29:26;98720.09;;;26.70;48.15
10587;BME280;5341;47.606;7.576;2022-07-29T08:31:55;98715.34;;;26.76;48.26
10587;BME280;5341;47.606;7.576;2022-07-29T08:34:23;98713.16;;;26.78;48.22
10587;BME280;5341;47.606;7.576;2022-07-29T08:36:50;98714.50;;;26.80;48.17
10587;BME280;5341;47.606;7.576;2022-07-29T08:39:19;98710.13;;;26.79;48.17
10587;BME280;5341;47.606;7.576;2022-07-29T08:41:49;98711.16;;;26.83;48.55
10587;BME280;5341;47.606;7.576;2022-07-29T08:44:22;98708.34;;;26.88;48.69
10587;BME280;5341;47.606;7.576;2022-07-29T08:46:53;98710.84;;;26.90;48.62
10587;BME280;5341;47.606;7.576;2022-07-29T08:49:24;98711.41;;;26.87;45.95
10587;BME280;5341;47.606;7.576;2022-07-29T08:51:55;98709.59;;;26.77;44.70
10587;BME280;5341;47.606;7.576;2022-07-29T08:54:25;98718.69;;;26.73;45.80
10587;BME280;5341;47.606;7.576;2022-07-29T08:56:55;98717.84;;;26.77;46.02
10587;BME280;5341;47.606;7.576;2022-07-29T08:59:27;98715.53;;;26.84;45.25
10587;BME280;5341;47.606;7.576;2022-07-29T09:01:57;98716.03;;;26.92;44.95
10587;BME280;5341;47.606;7.576;2022-07-29T09:04:29;98720.94;;;26.95;45.21
10587;BME280;5341;47.606;7.576;2022-07-29T09:07:04;98721.53;;;26.92;45.04
10587;BME280;5341;47.606;7.576;2022-07-29T09:09:33;98718.25;;;26.90;46.11
10587;BME280;5341;47.606;7.576;2022-07-29T09:12:01;98726.38;;;27.00;45.79
10587;BME280;5341;47.606;7.576;2022-07-29T09:14:31;98719.88;;;26.91;44.53
10587;BME280;5341;47.606;7.576;2022-07-29T09:16:59;98718.19;;;26.95;45.80
10587;BME280;5341;47.606;7.576;2022-07-29T09:19:29;98718.34;;;27.08;45.52
10587;BME280;5341;47.606;7.576;2022-07-29T09:21:59;98716.84;;;27.21;44.64
10587;BME280;5341;47.606;7.576;2022-07-29T09:24:37;98714.28;;;27.30;44.48
10587;BME280;5341;47.606;7.576;2022-07-29T09:27:11;98714.69;;;27.42;43.87
10587;BME280;5341;47.606;7.576;2022-07-29T09:29:40;98712.63;;;27.53;43.55
10587;BME280;5341;47.606;7.576;2022-07-29T09:32:09;98716.59;;;27.65;43.44
10587;BME280;5341;47.606;7.576;2022-07-29T09:34:38;98704.88;;;27.79;43.73
10587;BME280;5341;47.606;7.576;2022-07-29T09:37:06;98707.69;;;27.92;43.26
10587;BME280;5341;47.606;7.576;2022-07-29T09:39:37;98710.22;;;28.08;43.16
10587;BME280;5341;47.606;7.576;2022-07-29T09:42:11;98703.97;;;28.21;42.86
10587;BME280;5341;47.606;7.576;2022-07-29T09:44:47;98705.56;;;28.27;41.82
10587;BME280;5341;47.606;7.576;2022-07-29T09:47:16;98696.34;;;28.37;42.16
10587;BME280;5341;47.606;7.576;2022-07-29T09:49:52;98703.38;;;28.43;41.22
10587;BME280;5341;47.606;7.576;2022-07-29T09:52:20;98696.75;;;28.44;40.93
10587;BME280;5341;47.606;7.576;2022-07-29T09:54:48;98702.38;;;28.52;41.06
10587;BME280;5341;47.606;7.576;2022-07-29T09:57:25;98696.31;;;28.69;40.85
10587;BME280;5341;47.606;7.576;2022-07-29T10:00:00;98698.50;;;28.86;40.17
10587;BME280;5341;47.606;7.576;2022-07-29T10:02:41;98695.19;;;29.16;40.74
10587;BME280;5341;47.606;7.576;2022-07-29T10:05:19;98699.38;;;29.55;40.11
10587;BME280;5341;47.606;7.576;2022-07-29T10:07:48;98706.75;;;29.96;39.77
10587;BME280;5341;47.606;7.576;2022-07-29T10:10:21;98703.25;;;30.18;39.43
10587;BME280;5341;47.606;7.576;2022-07-29T10:12:51;98704.81;;;30.32;38.34
10587;BME280;5341;47.606;7.576;2022-07-29T10:15:23;98713.03;;;30.69;38.44
10587;BME280;5341;47.606;7.576;2022-07-29T10:17:54;98705.16;;;30.84;38.02
10587;BME280;5341;47.606;7.576;2022-07-29T10:20:23;98702.13;;;30.95;37.88
10587;BME280;5341;47.606;7.576;2022-07-29T10:22:54;98718.06;;;30.98;37.76
10587;BME280;5341;47.606;7.576;2022-07-29T10:25:23;98706.34;;;30.92;37.67
10587;BME280;5341;47.606;7.576;2022-07-29T10:27:51;98715.72;;;30.82;37.77
10587;BME280;5341;47.606;7.576;2022-07-29T10:30:23;98712.47;;;30.80;37.46
10587;BME280;5341;47.606;7.576;2022-07-29T10:33:07;98709.81;;;30.75;37.07
10587;BME280;5341;47.606;7.576;2022-07-29T10:35:45;98703.38;;;30.57;37.03
10587;BME280;5341;47.606;7.576;2022-07-29T10:38:34;98709.00;;;30.52;38.14
10587;BME280;5341;47.606;7.576;2022-07-29T10:41:12;98706.22;;;30.52;37.25
10587;BME280;5341;47.606;7.576;2022-07-29T10:44:00;98706.19;;;30.44;36.74
10587;BME280;5341;47.606;7.576;2022-07-29T10:46:38;98700.78;;;30.39;37.26
10587;BME280;5341;47.606;7.576;2022-07-29T10:49:11;98700.78;;;30.39;36.72
10587;BME280;5341;47.606;7.576;2022-07-29T10:51:59;98700.03;;;30.47;36.68
10587;BME280;5341;47.606;7.576;2022-07-29T10:54:41;98706.56;;;30.51;38.00
10587;BME280;5341;47.606;7.576;2022-07-29T10:57:19;98710.13;;;30.51;37.05
10587;BME280;5341;47.606;7.576;2022-07-29T10:59:48;98717.09;;;30.49;36.40
10587;BME280;5341;47.606;7.576;2022-07-29T11:02:43;98716.59;;;30.47;35.60
10587;BME280;5341;47.606;7.576;2022-07-29T11:05:13;98718.78;;;30.36;35.36
10587;BME280;5341;47.606;7.576;2022-07-29T11:10:39;98717.47;;;29.97;34.85
10587;BME280;5341;47.606;7.576;2022-07-29T11:13:07;98715.44;;;29.89;35.31
10587;BME280;5341;47.606;7.576;2022-07-29T11:15:53;98717.91;;;29.77;35.25
10587;BME280;5341;47.606;7.576;2022-07-29T11:18:23;98719.38;;;29.61;34.99
10587;BME280;5341;47.606;7.576;2022-07-29T11:20:51;98726.00;;;29.46;34.89
10587;BME280;5341;47.606;7.576;2022-07-29T11:23:25;98746.81;;;29.38;34.97
10587;BME280;5341;47.606;7.576;2022-07-29T11:26:16;98750.56;;;29.29;35.25
10587;BME280;5341;47.606;7.576;2022-07-29T11:28:51;98744.56;;;29.13;36.29
10587;BME280;5341;47.606;7.576;2022-07-29T11:31:31;98754.94;;;29.02;37.06
10587;BME280;5341;47.606;7.576;2022-07-29T11:34:19;98756.88;;;28.83;36.60
10587;BME280;5341;47.606;7.576;2022-07-29T11:37:16;98758.22;;;28.72;36.74
10587;BME280;5341;47.606;7.576;2022-07-29T11:39:45;98760.53;;;28.65;37.02
10587;BME280;5341;47.606;7.576;2022-07-29T11:42:41;98776.28;;;28.59;37.06
10587;BME280;5341;47.606;7.576;2022-07-29T11:45:11;98770.16;;;28.48;37.53
10587;BME280;5341;47.606;7.576;2022-07-29T11:47:42;98775.28;;;28.36;37.63
10587;BME280;5341;47.606;7.576;2022-07-29T11:50:16;98774.31;;;28.27;37.93
10587;BME280;5341;47.606;7.576;2022-07-29T11:52:45;98785.22;;;28.13;37.69
10587;BME280;5341;47.606;7.576;2022-07-29T11:55:15;98789.22;;;28.02;38.15
10587;BME280;5341;47.606;7.576;2022-07-29T11:57:48;98786.91;;;27.90;39.28
10587;BME280;5341;47.606;7.576;2022-07-29T12:00:27;98778.50;;;27.82;39.79
10587;BME280;5341;47.606;7.576;2022-07-29T12:02:56;98776.94;;;27.76;40.15
10587;BME280;5341;47.606;7.576;2022-07-29T12:05:34;98776.94;;;27.76;40.62
10587;BME280;5341;47.606;7.576;2022-07-29T12:08:12;98781.34;;;27.71;41.09
10587;BME280;5341;47.606;7.576;2022-07-29T12:10:41;98780.53;;;27.71;40.63
10587;BME280;5341;47.606;7.576;2022-07-29T12:13:10;98773.41;;;27.70;40.63
10587;BME280;5341;47.606;7.576;2022-07-29T12:15:37;98787.66;;;27.72;40.66
10587;BME280;5341;47.606;7.576;2022-07-29T12:18:16;98781.88;;;27.73;41.05
10587;BME280;5341;47.606;7.576;2022-07-29T12:20:47;98781.06;;;27.73;41.00
10587;BME280;5341;47.606;7.576;2022-07-29T12:23:15;98773.63;;;27.73;41.19
10587;BME280;5341;47.606;7.576;2022-07-29T12:25:44;98774.44;;;27.74;41.44
10587;BME280;5341;47.606;7.576;2022-07-29T12:28:13;98778.09;;;27.69;41.13
10587;BME280;5341;47.606;7.576;2022-07-29T12:30:45;98780.38;;;27.62;41.53
10587;BME280;5341;47.606;7.576;2022-07-29T12:33:20;98778.19;;;27.59;41.54
10587;BME280;5341;47.606;7.576;2022-07-29T12:35:52;98775.72;;;27.58;41.34
10587;BME280;5341;47.606;7.576;2022-07-29T12:38:21;98770.81;;;27.55;41.52
10587;BME280;5341;47.606;7.576;2022-07-29T12:40:49;98767.88;;;27.51;41.80
10587;BME280;5341;47.606;7.576;2022-07-29T12:43:19;98782.44;;;27.47;41.96
10587;BME280;5341;47.606;7.576;2022-07-29T12:45:49;98778.97;;;27.41;41.92
10587;BME280;5341;47.606;7.576;2022-07-29T12:48:18;98786.41;;;27.35;42.03
10587;BME280;5341;47.606;7.576;2022-07-29T12:51:02;98788.13;;;27.31;42.37
10587;BME280;5341;47.606;7.576;2022-07-29T12:53:32;98776.91;;;27.28;42.14
10587;BME280;5341;47.606;7.576;2022-07-29T12:56:00;98777.72;;;27.28;42.78
10587;BME280;5341;47.606;7.576;2022-07-29T12:58:30;98774.97;;;27.28;42.40
10587;BME280;5341;47.606;7.576;2022-07-29T13:01:04;98781.84;;;27.26;42.14
10587;BME280;5341;47.606;7.576;2022-07-29T13:03:45;98778.06;;;27.22;42.34
10587;BME280;5341;47.606;7.576;2022-07-29T13:06:34;98779.41;;;27.24;42.06
10587;BME280;5341;47.606;7.576;2022-07-29T13:09:06;98779.75;;;27.18;41.69
10587;BME280;5341;47.606;7.576;2022-07-29T13:11:38;98779.22;;;27.15;42.16
10587;BME280;5341;47.606;7.576;2022-07-29T13:14:08;98784.72;;;27.15;41.79
10587;BME280;5341;47.606;7.576;2022-07-29T13:17:00;98794.59;;;27.17;42.03
10587;BME280;5341;47.606;7.576;2022-07-29T13:19:34;98808.31;;;27.17;42.09
10587;BME280;5341;47.606;7.576;2022-07-29T13:22:04;98806.72;;;27.10;41.69
10587;BME280;5341;47.606;7.576;2022-07-29T13:24:31;98804.63;;;27.02;40.90
10587;BME280;5341;47.606;7.576;2022-07-29T13:26:59;98803.56;;;26.93;40.71
10587;BME280;5341;47.606;7.576;2022-07-29T13:29:27;98790.13;;;26.92;40.98
10587;BME280;5341;47.606;7.576;2022-07-29T13:31:54;98798.09;;;26.93;40.96
10587;BME280;5341;47.606;7.576;2022-07-29T13:34:22;98793.94;;;26.96;40.46